sensor_id;sensor_type;location;lat;lon;timestamp;P1;durP1;ratioP1;P2;durP2;ratioP2
75667;SDS011;64266;48.798;44.756;2022-11-02T00:01:38;1.92;;;1.02;;
75667;SDS011;64266;48.798;44.756;2022-11-02T00:04:08;1.90;;;1.02;;
75667;SDS011;64266;48.798;44.756;2022-11-02T00:06:35;4.70;;;1.05;;
75667;SDS011;64266;48.798;44.756;2022-11-02T00:09:02;1.85;;;1.00;;
75667;SDS011;64266;48.798;44.756;2022-11-02T00:11:28;2.42;;;1.20;;
75667;SDS011;64266;48.798;44.756;2022-11-02T00:13:53;3.00;;;0.95;;
75667;SDS011;64266;48.798;44.756;2022-11-02T00:16:20;2.22;;;1.02;;
75667;SDS011;64266;48.798;44.756;2022-11-02T00:18:47;2.72;;;1.00;;
75667;SDS011;64266;48.798;44.756;2022-11-02T00:21:16;2.85;;;1.23;;
75667;SDS011;64266;48.798;44.756;2022-11-02T00:23:45;2.28;;;1.20;;
75667;SDS011;64266;48.798;44.756;2022-11-02T00:26:12;1.90;;;1.10;;
75667;SDS011;64266;48.798;44.756;2022-11-02T00:28:39;3.25;;;1.20;;
75667;SDS011;64266;48.798;44.756;2022-11-02T00:31:06;1.92;;;0.93;;
75667;SDS011;64266;48.798;44.756;2022-11-02T00:33:31;2.78;;;1.10;;
75667;SDS011;64266;48.798;44.756;2022-11-02T00:35:58;3.20;;;1.27;;
75667;SDS011;64266;48.798;44.756;2022-11-02T00:38:23;2.08;;;1.10;;
75667;SDS011;64266;48.798;44.756;2022-11-02T00:40:49;2.45;;;1.30;;
75667;SDS011;64266;48.798;44.756;2022-11-02T00:43:15;1.95;;;0.90;;
75667;SDS011;64266;48.798;44.756;2022-11-02T00:45:42;2.60;;;1.02;;
75667;SDS011;64266;48.798;44.756;2022-11-02T00:48:08;2.72;;;1.35;;
75667;SDS011;64266;48.798;44.756;2022-11-02T00:50:34;1.98;;;1.13;;
75667;SDS011;64266;48.798;44.756;2022-11-02T00:53:01;2.95;;;1.00;;
75667;SDS011;64266;48.798;44.756;2022-11-02T00:55:27;3.22;;;1.00;;
75667;SDS011;64266;48.798;44.756;2022-11-02T01:00:24;1.63;;;0.80;;
75667;SDS011;64266;48.798;44.756;2022-11-02T01:02:50;1.83;;;0.82;;
75667;SDS011;64266;48.798;44.756;2022-11-02T01:05:16;1.92;;;0.80;;
75667;SDS011;64266;48.798;44.756;2022-11-02T01:07:42;2.83;;;1.00;;
75667;SDS011;64266;48.798;44.756;2022-11-02T01:10:09;2.00;;;0.90;;
75667;SDS011;64266;48.798;44.756;2022-11-02T01:12:39;1.77;;;1.08;;
75667;SDS011;64266;48.798;44.756;2022-11-02T01:15:05;2.15;;;0.80;;
75667;SDS011;64266;48.798;44.756;2022-11-02T01:17:32;2.10;;;1.00;;
75667;SDS011;64266;48.798;44.756;2022-11-02T01:19:59;2.83;;;1.08;;
75667;SDS011;64266;48.798;44.756;2022-11-02T01:22:25;3.03;;;0.95;;
75667;SDS011;64266;48.798;44.756;2022-11-02T01:24:51;2.50;;;1.13;;
75667;SDS011;64266;48.798;44.756;2022-11-02T01:27:16;1.40;;;0.77;;
75667;SDS011;64266;48.798;44.756;2022-11-02T01:29:43;1.50;;;0.70;;
75667;SDS011;64266;48.798;44.756;2022-11-02T01:32:08;3.17;;;1.05;;
75667;SDS011;64266;48.798;44.756;2022-11-02T01:34:34;3.95;;;1.20;;
75667;SDS011;64266;48.798;44.756;2022-11-02T01:37:00;2.72;;;1.23;;
75667;SDS011;64266;48.798;44.756;2022-11-02T01:39:26;3.80;;;1.27;;
75667;SDS011;64266;48.798;44.756;2022-11-02T01:41:52;3.17;;;1.30;;
75667;SDS011;64266;48.798;44.756;2022-11-02T01:44:31;1.92;;;1.08;;
75667;SDS011;64266;48.798;44.756;2022-11-02T01:49:33;1.90;;;0.95;;
75667;SDS011;64266;48.798;44.756;2022-11-02T01:54:47;3.13;;;1.10;;
75667;SDS011;64266;48.798;44.756;2022-11-02T01:57:18;2.55;;;1.05;;
75667;SDS011;64266;48.798;44.756;2022-11-02T01:59:51;3.05;;;1.30;;
75667;SDS011;64266;48.798;44.756;2022-11-02T02:02:19;2.58;;;1.38;;
75667;SDS011;64266;48.798;44.756;2022-11-02T02:04:48;4.18;;;1.13;;
75667;SDS011;64266;48.798;44.756;2022-11-02T02:09:44;2.47;;;1.35;;
75667;SDS011;64266;48.798;44.756;2022-11-02T02:12:10;2.25;;;1.00;;
75667;SDS011;64266;48.798;44.756;2022-11-02T02:14:38;2.30;;;1.20;;
75667;SDS011;64266;48.798;44.756;2022-11-02T02:17:18;4.50;;;1.20;;
75667;SDS011;64266;48.798;44.756;2022-11-02T02:28:37;1.90;;;1.13;;
75667;SDS011;64266;48.798;44.756;2022-11-02T02:31:31;2.88;;;1.13;;
75667;SDS011;64266;48.798;44.756;2022-11-02T02:33:58;1.70;;;1.08;;
75667;SDS011;64266;48.798;44.756;2022-11-02T02:39:26;3.20;;;1.35;;
75667;SDS011;64266;48.798;44.756;2022-11-02T02:44:32;2.88;;;1.20;;
75667;SDS011;64266;48.798;44.756;2022-11-02T02:49:41;2.88;;;1.40;;
75667;SDS011;64266;48.798;44.756;2022-11-02T02:52:13;4.32;;;1.15;;
75667;SDS011;64266;48.798;44.756;2022-11-02T02:54:42;4.40;;;1.65;;
75667;SDS011;64266;48.798;44.756;2022-11-02T02:57:12;3.88;;;1.60;;
75667;SDS011;64266;48.798;44.756;2022-11-02T02:59:46;5.10;;;1.52;;
75667;SDS011;64266;48.798;44.756;2022-11-02T03:02:19;4.70;;;1.52;;
75667;SDS011;64266;48.798;44.756;2022-11-02T03:04:47;2.63;;;1.10;;
75667;SDS011;64266;48.798;44.756;2022-11-02T03:07:15;4.18;;;1.55;;
75667;SDS011;64266;48.798;44.756;2022-11-02T03:09:52;3.35;;;1.60;;
75667;SDS011;64266;48.798;44.756;2022-11-02T03:13:08;3.78;;;1.65;;
75667;SDS011;64266;48.798;44.756;2022-11-02T03:16:06;4.75;;;1.30;;
75667;SDS011;64266;48.798;44.756;2022-11-02T03:18:43;3.20;;;1.35;;
75667;SDS011;64266;48.798;44.756;2022-11-02T03:23:59;5.25;;;1.50;;
75667;SDS011;64266;48.798;44.756;2022-11-02T03:27:06;3.00;;;1.35;;
75667;SDS011;64266;48.798;44.756;2022-11-02T03:29:53;3.83;;;1.30;;
75667;SDS011;64266;48.798;44.756;2022-11-02T03:32:40;2.65;;;1.50;;
75667;SDS011;64266;48.798;44.756;2022-11-02T03:35:14;2.83;;;1.23;;
75667;SDS011;64266;48.798;44.756;2022-11-02T03:37:51;2.25;;;1.05;;
75667;SDS011;64266;48.798;44.756;2022-11-02T03:40:34;3.15;;;1.20;;
75667;SDS011;64266;48.798;44.756;2022-11-02T03:43:05;4.15;;;1.30;;
75667;SDS011;64266;48.798;44.756;2022-11-02T03:45:37;7.18;;;1.63;;
75667;SDS011;64266;48.798;44.756;2022-11-02T03:48:06;2.40;;;0.98;;
75667;SDS011;64266;48.798;44.756;2022-11-02T03:50:35;3.17;;;1.10;;
75667;SDS011;64266;48.798;44.756;2022-11-02T03:53:08;2.53;;;1.10;;
75667;SDS011;64266;48.798;44.756;2022-11-02T03:55:41;1.60;;;0.80;;
75667;SDS011;64266;48.798;44.756;2022-11-02T03:58:14;4.03;;;1.10;;
75667;SDS011;64266;48.798;44.756;2022-11-02T04:00:52;3.35;;;1.13;;
75667;SDS011;64266;48.798;44.756;2022-11-02T04:03:23;2.70;;;1.33;;
75667;SDS011;64266;48.798;44.756;2022-11-02T04:05:51;2.45;;;0.98;;
75667;SDS011;64266;48.798;44.756;2022-11-02T04:08:44;4.35;;;1.10;;
75667;SDS011;64266;48.798;44.756;2022-11-02T04:11:14;3.50;;;0.82;;
75667;SDS011;64266;48.798;44.756;2022-11-02T04:14:07;3.90;;;1.30;;
75667;SDS011;64266;48.798;44.756;2022-11-02T04:16:51;1.98;;;1.02;;
75667;SDS011;64266;48.798;44.756;2022-11-02T04:19:39;3.72;;;1.40;;
75667;SDS011;64266;48.798;44.756;2022-11-02T04:22:07;3.63;;;1.10;;
75667;SDS011;64266;48.798;44.756;2022-11-02T04:24:58;3.90;;;1.40;;
75667;SDS011;64266;48.798;44.756;2022-11-02T04:28:06;6.22;;;1.83;;
75667;SDS011;64266;48.798;44.756;2022-11-02T04:30:39;4.82;;;1.88;;
75667;SDS011;64266;48.798;44.756;2022-11-02T04:33:05;6.07;;;1.65;;
75667;SDS011;64266;48.798;44.756;2022-11-02T04:35:59;3.63;;;1.85;;
75667;SDS011;64266;48.798;44.756;2022-11-02T04:38:30;3.67;;;2.03;;
75667;SDS011;64266;48.798;44.756;2022-11-02T04:41:12;4.75;;;1.98;;
75667;SDS011;64266;48.798;44.756;2022-11-02T04:46:32;11.10;;;2.45;;
75667;SDS011;64266;48.798;44.756;2022-11-02T04:49:02;6.18;;;2.58;;
75667;SDS011;64266;48.798;44.756;2022-11-02T04:51:30;5.20;;;2.60;;
75667;SDS011;64266;48.798;44.756;2022-11-02T04:53:57;6.75;;;2.72;;
75667;SDS011;64266;48.798;44.756;2022-11-02T04:56:24;8.07;;;3.33;;
75667;SDS011;64266;48.798;44.756;2022-11-02T04:58:52;9.88;;;3.78;;
75667;SDS011;64266;48.798;44.756;2022-11-02T05:01:20;9.10;;;4.20;;
75667;SDS011;64266;48.798;44.756;2022-11-02T05:03:49;9.15;;;4.38;;
75667;SDS011;64266;48.798;44.756;2022-11-02T05:06:17;35.20;;;7.95;;
75667;SDS011;64266;48.798;44.756;2022-11-02T05:08:45;10.55;;;3.67;;
75667;SDS011;64266;48.798;44.756;2022-11-02T05:11:11;7.90;;;3.65;;
75667;SDS011;64266;48.798;44.756;2022-11-02T05:13:38;9.93;;;3.60;;
75667;SDS011;64266;48.798;44.756;2022-11-02T05:16:06;9.73;;;4.75;;
75667;SDS011;64266;48.798;44.756;2022-11-02T05:18:35;9.23;;;4.20;;
75667;SDS011;64266;48.798;44.756;2022-11-02T05:21:03;17.70;;;4.80;;
75667;SDS011;64266;48.798;44.756;2022-11-02T05:23:29;9.82;;;4.20;;
75667;SDS011;64266;48.798;44.756;2022-11-02T05:26:01;24.67;;;15.13;;
75667;SDS011;64266;48.798;44.756;2022-11-02T05:28:31;8.32;;;3.92;;
75667;SDS011;64266;48.798;44.756;2022-11-02T05:30:59;8.77;;;3.92;;
75667;SDS011;64266;48.798;44.756;2022-11-02T05:33:27;8.93;;;3.53;;
75667;SDS011;64266;48.798;44.756;2022-11-02T05:35:55;10.20;;;3.97;;
75667;SDS011;64266;48.798;44.756;2022-11-02T05:40:52;9.15;;;3.85;;
75667;SDS011;64266;48.798;44.756;2022-11-02T05:43:19;6.25;;;3.35;;
75667;SDS011;64266;48.798;44.756;2022-11-02T05:45:52;10.30;;;4.22;;
75667;SDS011;64266;48.798;44.756;2022-11-02T05:48:24;8.38;;;4.78;;
75667;SDS011;64266;48.798;44.756;2022-11-02T05:50:54;8.35;;;3.92;;
75667;SDS011;64266;48.798;44.756;2022-11-02T05:53:21;9.25;;;3.90;;
75667;SDS011;64266;48.798;44.756;2022-11-02T05:55:48;9.80;;;4.40;;
75667;SDS011;64266;48.798;44.756;2022-11-02T05:58:14;12.50;;;4.03;;
75667;SDS011;64266;48.798;44.756;2022-11-02T06:00:39;11.65;;;4.18;;
75667;SDS011;64266;48.798;44.756;2022-11-02T06:03:05;11.80;;;3.95;;
75667;SDS011;64266;48.798;44.756;2022-11-02T06:05:32;12.60;;;4.25;;
75667;SDS011;64266;48.798;44.756;2022-11-02T06:08:00;11.57;;;5.72;;
75667;SDS011;64266;48.798;44.756;2022-11-02T06:10:27;11.75;;;4.55;;
75667;SDS011;64266;48.798;44.756;2022-11-02T06:12:55;11.05;;;4.53;;
75667;SDS011;64266;48.798;44.756;2022-11-02T06:15:25;9.40;;;4.50;;
75667;SDS011;64266;48.798;44.756;2022-11-02T06:17:52;12.57;;;5.45;;
75667;SDS011;64266;48.798;44.756;2022-11-02T06:20:20;9.10;;;4.72;;
75667;SDS011;64266;48.798;44.756;2022-11-02T06:22:48;10.32;;;4.20;;
75667;SDS011;64266;48.798;44.756;2022-11-02T06:25:14;9.63;;;4.88;;
75667;SDS011;64266;48.798;44.756;2022-11-02T06:27:40;10.43;;;4.82;;
75667;SDS011;64266;48.798;44.756;2022-11-02T06:30:09;11.05;;;4.28;;
75667;SDS011;64266;48.798;44.756;2022-11-02T06:32:35;14.70;;;7.22;;
75667;SDS011;64266;48.798;44.756;2022-11-02T06:35:01;17.42;;;7.35;;
75667;SDS011;64266;48.798;44.756;2022-11-02T06:37:31;11.70;;;5.97;;
75667;SDS011;64266;48.798;44.756;2022-11-02T06:39:59;10.98;;;4.25;;
75667;SDS011;64266;48.798;44.756;2022-11-02T06:42:25;8.57;;;4.68;;
75667;SDS011;64266;48.798;44.756;2022-11-02T06:44:53;8.43;;;4.00;;
75667;SDS011;64266;48.798;44.756;2022-11-02T06:47:29;8.50;;;3.90;;
75667;SDS011;64266;48.798;44.756;2022-11-02T06:52:25;6.72;;;3.55;;
75667;SDS011;64266;48.798;44.756;2022-11-02T06:54:52;8.18;;;3.65;;
75667;SDS011;64266;48.798;44.756;2022-11-02T06:57:18;5.97;;;3.03;;
75667;SDS011;64266;48.798;44.756;2022-11-02T06:59:44;7.43;;;3.67;;
75667;SDS011;64266;48.798;44.756;2022-11-02T07:02:09;5.78;;;3.13;;
75667;SDS011;64266;48.798;44.756;2022-11-02T07:04:35;6.97;;;3.70;;
75667;SDS011;64266;48.798;44.756;2022-11-02T07:07:10;9.88;;;3.75;;
75667;SDS011;64266;48.798;44.756;2022-11-02T07:09:35;8.18;;;4.30;;
75667;SDS011;64266;48.798;44.756;2022-11-02T07:12:04;12.00;;;5.90;;
75667;SDS011;64266;48.798;44.756;2022-11-02T07:14:30;17.25;;;6.88;;
75667;SDS011;64266;48.798;44.756;2022-11-02T07:16:56;12.70;;;5.88;;
75667;SDS011;64266;48.798;44.756;2022-11-02T07:19:22;7.05;;;3.38;;
75667;SDS011;64266;48.798;44.756;2022-11-02T07:21:47;7.22;;;3.80;;
75667;SDS011;64266;48.798;44.756;2022-11-02T07:24:13;7.70;;;3.85;;
75667;SDS011;64266;48.798;44.756;2022-11-02T07:26:40;8.65;;;3.90;;
75667;SDS011;64266;48.798;44.756;2022-11-02T07:29:06;8.60;;;4.05;;
75667;SDS011;64266;48.798;44.756;2022-11-02T07:31:32;9.35;;;5.60;;
75667;SDS011;64266;48.798;44.756;2022-11-02T07:33:58;11.25;;;4.80;;
75667;SDS011;64266;48.798;44.756;2022-11-02T07:36:24;7.75;;;4.38;;
75667;SDS011;64266;48.798;44.756;2022-11-02T07:38:53;10.70;;;4.55;;
75667;SDS011;64266;48.798;44.756;2022-11-02T07:41:21;8.02;;;3.88;;
75667;SDS011;64266;48.798;44.756;2022-11-02T07:43:47;9.60;;;5.03;;
75667;SDS011;64266;48.798;44.756;2022-11-02T07:46:46;11.80;;;5.78;;
75667;SDS011;64266;48.798;44.756;2022-11-02T07:49:12;8.95;;;4.82;;
75667;SDS011;64266;48.798;44.756;2022-11-02T07:51:38;14.35;;;7.10;;
75667;SDS011;64266;48.798;44.756;2022-11-02T07:54:04;9.38;;;5.57;;
75667;SDS011;64266;48.798;44.756;2022-11-02T07:56:30;8.88;;;4.25;;
75667;SDS011;64266;48.798;44.756;2022-11-02T07:58:56;8.63;;;4.70;;
75667;SDS011;64266;48.798;44.756;2022-11-02T08:01:23;6.82;;;4.30;;
75667;SDS011;64266;48.798;44.756;2022-11-02T08:03:51;8.05;;;3.83;;
75667;SDS011;64266;48.798;44.756;2022-11-02T08:06:19;9.32;;;3.38;;
75667;SDS011;64266;48.798;44.756;2022-11-02T08:08:45;6.85;;;3.50;;
75667;SDS011;64266;48.798;44.756;2022-11-02T08:11:10;10.25;;;4.25;;
75667;SDS011;64266;48.798;44.756;2022-11-02T08:13:37;15.30;;;5.97;;
75667;SDS011;64266;48.798;44.756;2022-11-02T08:16:03;8.43;;;4.43;;
75667;SDS011;64266;48.798;44.756;2022-11-02T08:18:29;8.02;;;3.90;;
75667;SDS011;64266;48.798;44.756;2022-11-02T08:21:00;10.45;;;5.63;;
75667;SDS011;64266;48.798;44.756;2022-11-02T08:23:27;9.35;;;4.40;;
75667;SDS011;64266;48.798;44.756;2022-11-02T08:26:02;7.32;;;4.03;;
75667;SDS011;64266;48.798;44.756;2022-11-02T08:28:37;11.10;;;3.50;;
75667;SDS011;64266;48.798;44.756;2022-11-02T08:31:05;7.68;;;3.42;;
75667;SDS011;64266;48.798;44.756;2022-11-02T08:33:43;9.18;;;3.17;;
75667;SDS011;64266;48.798;44.756;2022-11-02T08:36:09;6.30;;;3.33;;
75667;SDS011;64266;48.798;44.756;2022-11-02T08:38:37;7.22;;;3.40;;
75667;SDS011;64266;48.798;44.756;2022-11-02T08:41:04;7.53;;;3.58;;
75667;SDS011;64266;48.798;44.756;2022-11-02T08:43:31;12.27;;;5.78;;
75667;SDS011;64266;48.798;44.756;2022-11-02T08:45:57;8.82;;;4.65;;
75667;SDS011;64266;48.798;44.756;2022-11-02T08:48:24;9.07;;;4.18;;
75667;SDS011;64266;48.798;44.756;2022-11-02T08:50:51;7.00;;;3.50;;
75667;SDS011;64266;48.798;44.756;2022-11-02T08:53:17;7.40;;;4.03;;
75667;SDS011;64266;48.798;44.756;2022-11-02T08:55:43;6.85;;;3.78;;
75667;SDS011;64266;48.798;44.756;2022-11-02T08:58:08;6.00;;;3.50;;
75667;SDS011;64266;48.798;44.756;2022-11-02T09:00:34;6.57;;;3.65;;
75667;SDS011;64266;48.798;44.756;2022-11-02T09:03:01;8.10;;;3.60;;
75667;SDS011;64266;48.798;44.756;2022-11-02T09:05:37;9.02;;;3.40;;
75667;SDS011;64266;48.798;44.756;2022-11-02T09:08:13;8.68;;;3.53;;
75667;SDS011;64266;48.798;44.756;2022-11-02T09:10:42;7.85;;;4.00;;
75667;SDS011;64266;48.798;44.756;2022-11-02T09:13:09;8.85;;;4.15;;
75667;SDS011;64266;48.798;44.756;2022-11-02T09:18:05;6.15;;;3.28;;
75667;SDS011;64266;48.798;44.756;2022-11-02T09:20:33;10.23;;;4.18;;
75667;SDS011;64266;48.798;44.756;2022-11-02T09:23:00;13.90;;;6.22;;
75667;SDS011;64266;48.798;44.756;2022-11-02T09:25:26;9.40;;;4.53;;
75667;SDS011;64266;48.798;44.756;2022-11-02T09:27:52;8.15;;;4.50;;
75667;SDS011;64266;48.798;44.756;2022-11-02T09:30:19;22.90;;;10.00;;
75667;SDS011;64266;48.798;44.756;2022-11-02T09:32:53;8.32;;;3.22;;
75667;SDS011;64266;48.798;44.756;2022-11-02T09:35:18;5.93;;;3.38;;
75667;SDS011;64266;48.798;44.756;2022-11-02T09:37:45;8.35;;;3.90;;
75667;SDS011;64266;48.798;44.756;2022-11-02T09:40:11;5.35;;;3.40;;
75667;SDS011;64266;48.798;44.756;2022-11-02T09:42:43;6.00;;;3.38;;
75667;SDS011;64266;48.798;44.756;2022-11-02T09:45:13;11.98;;;4.78;;
75667;SDS011;64266;48.798;44.756;2022-11-02T09:50:22;6.57;;;3.55;;
75667;SDS011;64266;48.798;44.756;2022-11-02T09:52:57;6.75;;;3.85;;
75667;SDS011;64266;48.798;44.756;2022-11-02T09:55:31;6.45;;;3.80;;
75667;SDS011;64266;48.798;44.756;2022-11-02T09:58:04;8.00;;;3.28;;
75667;SDS011;64266;48.798;44.756;2022-11-02T10:00:37;11.57;;;3.88;;
75667;SDS011;64266;48.798;44.756;2022-11-02T10:06:12;9.13;;;3.85;;
75667;SDS011;64266;48.798;44.756;2022-11-02T10:11:37;6.35;;;3.63;;
75667;SDS011;64266;48.798;44.756;2022-11-02T10:16:39;11.75;;;4.97;;
75667;SDS011;64266;48.798;44.756;2022-11-02T10:19:16;8.20;;;3.90;;
75667;SDS011;64266;48.798;44.756;2022-11-02T10:21:45;6.65;;;3.78;;
75667;SDS011;64266;48.798;44.756;2022-11-02T10:24:21;6.32;;;3.08;;
75667;SDS011;64266;48.798;44.756;2022-11-02T10:26:47;12.65;;;5.93;;
75667;SDS011;64266;48.798;44.756;2022-11-02T10:29:19;10.35;;;3.60;;
75667;SDS011;64266;48.798;44.756;2022-11-02T10:32:09;5.68;;;2.83;;
75667;SDS011;64266;48.798;44.756;2022-11-02T10:34:36;13.95;;;6.30;;
75667;SDS011;64266;48.798;44.756;2022-11-02T10:51:45;6.50;;;3.22;;
75667;SDS011;64266;48.798;44.756;2022-11-02T10:54:12;6.78;;;3.58;;
75667;SDS011;64266;48.798;44.756;2022-11-02T10:56:41;7.32;;;3.88;;
75667;SDS011;64266;48.798;44.756;2022-11-02T10:59:14;7.78;;;4.63;;
75667;SDS011;64266;48.798;44.756;2022-11-02T11:01:46;9.98;;;5.25;;
75667;SDS011;64266;48.798;44.756;2022-11-02T11:04:30;9.57;;;3.95;;
75667;SDS011;64266;48.798;44.756;2022-11-02T11:09:45;7.90;;;3.42;;
75667;SDS011;64266;48.798;44.756;2022-11-02T11:12:19;8.27;;;3.88;;
75667;SDS011;64266;48.798;44.756;2022-11-02T11:15:06;5.95;;;3.63;;
75667;SDS011;64266;48.798;44.756;2022-11-02T11:17:48;8.88;;;4.18;;
75667;SDS011;64266;48.798;44.756;2022-11-02T11:20:27;10.48;;;4.35;;
75667;SDS011;64266;48.798;44.756;2022-11-02T11:25:41;7.93;;;4.20;;
75667;SDS011;64266;48.798;44.756;2022-11-02T11:28:21;11.07;;;4.13;;
75667;SDS011;64266;48.798;44.756;2022-11-02T11:33:43;7.35;;;3.50;;
75667;SDS011;64266;48.798;44.756;2022-11-02T11:36:19;10.10;;;4.18;;
75667;SDS011;64266;48.798;44.756;2022-11-02T11:39:15;6.80;;;4.18;;
75667;SDS011;64266;48.798;44.756;2022-11-02T11:41:57;11.95;;;5.28;;
75667;SDS011;64266;48.798;44.756;2022-11-02T11:44:31;58.95;;;7.18;;
75667;SDS011;64266;48.798;44.756;2022-11-02T11:47:02;7.90;;;4.78;;
75667;SDS011;64266;48.798;44.756;2022-11-02T11:49:35;7.97;;;4.35;;
75667;SDS011;64266;48.798;44.756;2022-11-02T11:52:19;10.63;;;4.70;;
75667;SDS011;64266;48.798;44.756;2022-11-02T11:54:54;8.02;;;4.70;;
75667;SDS011;64266;48.798;44.756;2022-11-02T11:57:25;9.88;;;4.57;;
75667;SDS011;64266;48.798;44.756;2022-11-02T11:59:56;9.63;;;5.30;;
75667;SDS011;64266;48.798;44.756;2022-11-02T12:02:33;9.77;;;5.13;;
75667;SDS011;64266;48.798;44.756;2022-11-02T12:05:01;16.88;;;5.78;;
75667;SDS011;64266;48.798;44.756;2022-11-02T12:13:35;9.35;;;5.07;;
75667;SDS011;64266;48.798;44.756;2022-11-02T12:19:16;14.77;;;7.45;;
75667;SDS011;64266;48.798;44.756;2022-11-02T12:22:00;10.00;;;5.10;;
75667;SDS011;64266;48.798;44.756;2022-11-02T12:40:57;12.85;;;6.45;;
75667;SDS011;64266;48.798;44.756;2022-11-02T12:49:06;9.88;;;4.85;;
75667;SDS011;64266;48.798;44.756;2022-11-02T12:51:38;12.18;;;5.50;;
75667;SDS011;64266;48.798;44.756;2022-11-02T12:54:19;12.15;;;5.25;;
75667;SDS011;64266;48.798;44.756;2022-11-02T12:56:47;10.88;;;5.10;;
75667;SDS011;64266;48.798;44.756;2022-11-02T12:59:18;10.40;;;4.70;;
75667;SDS011;64266;48.798;44.756;2022-11-02T13:01:50;11.55;;;6.10;;
75667;SDS011;64266;48.798;44.756;2022-11-02T13:08:00;10.88;;;5.15;;
75667;SDS011;64266;48.798;44.756;2022-11-02T13:10:47;10.02;;;5.05;;
75667;SDS011;64266;48.798;44.756;2022-11-02T13:13:32;10.85;;;4.88;;
75667;SDS011;64266;48.798;44.756;2022-11-02T13:16:00;16.95;;;6.30;;
75667;SDS011;64266;48.798;44.756;2022-11-02T13:18:32;10.23;;;5.03;;
75667;SDS011;64266;48.798;44.756;2022-11-02T13:21:11;17.05;;;5.78;;
75667;SDS011;64266;48.798;44.756;2022-11-02T13:23:48;9.15;;;5.15;;
75667;SDS011;64266;48.798;44.756;2022-11-02T13:26:33;13.20;;;5.15;;
75667;SDS011;64266;48.798;44.756;2022-11-02T13:29:25;15.45;;;6.85;;
75667;SDS011;64266;48.798;44.756;2022-11-02T13:34:42;13.85;;;5.70;;
75667;SDS011;64266;48.798;44.756;2022-11-02T13:37:12;8.38;;;3.92;;
75667;SDS011;64266;48.798;44.756;2022-11-02T13:39:48;12.85;;;5.30;;
75667;SDS011;64266;48.798;44.756;2022-11-02T13:50:08;13.13;;;4.28;;
75667;SDS011;64266;48.798;44.756;2022-11-02T13:55:21;10.95;;;3.90;;
75667;SDS011;64266;48.798;44.756;2022-11-02T13:57:54;8.35;;;4.25;;
75667;SDS011;64266;48.798;44.756;2022-11-02T14:02:49;10.15;;;4.55;;
75667;SDS011;64266;48.798;44.756;2022-11-02T14:05:25;9.02;;;3.78;;
75667;SDS011;64266;48.798;44.756;2022-11-02T14:07:58;12.32;;;4.57;;
75667;SDS011;64266;48.798;44.756;2022-11-02T14:10:27;9.57;;;4.13;;
75667;SDS011;64266;48.798;44.756;2022-11-02T14:13:02;10.38;;;4.15;;
75667;SDS011;64266;48.798;44.756;2022-11-02T14:18:14;8.95;;;3.70;;
75667;SDS011;64266;48.798;44.756;2022-11-02T14:20:51;8.02;;;4.00;;
75667;SDS011;64266;48.798;44.756;2022-11-02T14:25:59;10.70;;;4.43;;
75667;SDS011;64266;48.798;44.756;2022-11-02T14:39:30;7.25;;;3.50;;
75667;SDS011;64266;48.798;44.756;2022-11-02T14:48:14;7.47;;;3.53;;
75667;SDS011;64266;48.798;44.756;2022-11-02T14:50:42;10.68;;;4.70;;
75667;SDS011;64266;48.798;44.756;2022-11-02T14:53:22;9.23;;;4.32;;
75667;SDS011;64266;48.798;44.756;2022-11-02T14:55:52;8.45;;;3.92;;
75667;SDS011;64266;48.798;44.756;2022-11-02T14:58:21;13.40;;;4.80;;
75667;SDS011;64266;48.798;44.756;2022-11-02T15:00:54;14.23;;;4.47;;
75667;SDS011;64266;48.798;44.756;2022-11-02T15:05:48;10.18;;;4.47;;
75667;SDS011;64266;48.798;44.756;2022-11-02T15:08:24;9.25;;;4.82;;
75667;SDS011;64266;48.798;44.756;2022-11-02T15:10:52;15.73;;;4.88;;
75667;SDS011;64266;48.798;44.756;2022-11-02T15:16:36;10.07;;;4.53;;
75667;SDS011;64266;48.798;44.756;2022-11-02T15:18:35;12.98;;;4.93;;
75667;SDS011;64266;48.798;44.756;2022-11-02T15:23:36;8.93;;;4.40;;
75667;SDS011;64266;48.798;44.756;2022-11-02T15:26:32;10.57;;;4.55;;
75667;SDS011;64266;48.798;44.756;2022-11-02T15:29:00;12.07;;;4.30;;
75667;SDS011;64266;48.798;44.756;2022-11-02T15:31:28;12.52;;;5.20;;
75667;SDS011;64266;48.798;44.756;2022-11-02T15:33:56;9.82;;;4.28;;
75667;SDS011;64266;48.798;44.756;2022-11-02T15:38:55;9.15;;;4.38;;
75667;SDS011;64266;48.798;44.756;2022-11-02T15:50:43;9.85;;;4.40;;
75667;SDS011;64266;48.798;44.756;2022-11-02T15:58:27;9.48;;;4.53;;
75667;SDS011;64266;48.798;44.756;2022-11-02T16:03:46;12.82;;;5.10;;
75667;SDS011;64266;48.798;44.756;2022-11-02T16:06:13;9.27;;;4.95;;
75667;SDS011;64266;48.798;44.756;2022-11-02T16:08:39;14.65;;;5.28;;
75667;SDS011;64266;48.798;44.756;2022-11-02T16:11:13;13.05;;;5.63;;
75667;SDS011;64266;48.798;44.756;2022-11-02T16:13:43;10.13;;;4.57;;
75667;SDS011;64266;48.798;44.756;2022-11-02T16:16:09;12.82;;;5.13;;
75667;SDS011;64266;48.798;44.756;2022-11-02T16:18:40;9.90;;;5.30;;
75667;SDS011;64266;48.798;44.756;2022-11-02T16:21:09;8.52;;;4.28;;
75667;SDS011;64266;48.798;44.756;2022-11-02T16:23:40;10.55;;;5.38;;
75667;SDS011;64266;48.798;44.756;2022-11-02T16:26:14;11.43;;;5.10;;
75667;SDS011;64266;48.798;44.756;2022-11-02T16:31:16;11.05;;;4.40;;
75667;SDS011;64266;48.798;44.756;2022-11-02T16:33:52;10.40;;;4.80;;
75667;SDS011;64266;48.798;44.756;2022-11-02T16:36:21;10.98;;;5.03;;
75667;SDS011;64266;48.798;44.756;2022-11-02T16:41:28;8.98;;;4.57;;
75667;SDS011;64266;48.798;44.756;2022-11-02T16:43:56;11.52;;;4.93;;
75667;SDS011;64266;48.798;44.756;2022-11-02T16:49:14;12.05;;;5.32;;
75667;SDS011;64266;48.798;44.756;2022-11-02T16:51:49;10.55;;;5.18;;
75667;SDS011;64266;48.798;44.756;2022-11-02T16:54:33;11.73;;;5.07;;
75667;SDS011;64266;48.798;44.756;2022-11-02T16:59:44;10.05;;;4.68;;
75667;SDS011;64266;48.798;44.756;2022-11-02T17:02:36;11.13;;;4.93;;
75667;SDS011;64266;48.798;44.756;2022-11-02T17:05:17;11.10;;;5.25;;
75667;SDS011;64266;48.798;44.756;2022-11-02T17:07:48;10.07;;;4.95;;
75667;SDS011;64266;48.798;44.756;2022-11-02T17:10:23;11.95;;;5.03;;
75667;SDS011;64266;48.798;44.756;2022-11-02T17:12:51;10.23;;;4.78;;
75667;SDS011;64266;48.798;44.756;2022-11-02T17:15:19;10.38;;;5.13;;
75667;SDS011;64266;48.798;44.756;2022-11-02T17:18:12;14.40;;;5.68;;
75667;SDS011;64266;48.798;44.756;2022-11-02T17:20:36;10.77;;;5.38;;
75667;SDS011;64266;48.798;44.756;2022-11-02T17:23:04;11.38;;;5.35;;
75667;SDS011;64266;48.798;44.756;2022-11-02T17:28:00;14.07;;;5.50;;
75667;SDS011;64266;48.798;44.756;2022-11-02T17:32:54;14.45;;;5.40;;
75667;SDS011;64266;48.798;44.756;2022-11-02T17:35:21;10.35;;;5.07;;
75667;SDS011;64266;48.798;44.756;2022-11-02T17:37:47;10.65;;;5.22;;
75667;SDS011;64266;48.798;44.756;2022-11-02T17:40:14;14.05;;;5.60;;
75667;SDS011;64266;48.798;44.756;2022-11-02T17:42:39;11.15;;;5.32;;
75667;SDS011;64266;48.798;44.756;2022-11-02T17:47:54;11.70;;;5.13;;
75667;SDS011;64266;48.798;44.756;2022-11-02T17:50:21;15.00;;;6.35;;
75667;SDS011;64266;48.798;44.756;2022-11-02T17:52:48;13.50;;;6.28;;
75667;SDS011;64266;48.798;44.756;2022-11-02T17:55:16;15.00;;;5.85;;
75667;SDS011;64266;48.798;44.756;2022-11-02T17:57:44;11.95;;;5.60;;
75667;SDS011;64266;48.798;44.756;2022-11-02T18:00:11;15.88;;;6.63;;
75667;SDS011;64266;48.798;44.756;2022-11-02T18:02:38;13.60;;;6.32;;
75667;SDS011;64266;48.798;44.756;2022-11-02T18:07:49;12.68;;;6.22;;
75667;SDS011;64266;48.798;44.756;2022-11-02T18:10:16;14.15;;;6.35;;